sensor_id;sensor_type;location;lat;lon;timestamp;P1;durP1;ratioP1;P2;durP2;ratioP2
27225;SDS011;14732;51.074;3.788;2023-05-02T00:00:07;43.00;;;16.40;;
27225;SDS011;14732;51.074;3.788;2023-05-02T00:02:34;37.03;;;17.52;;
27225;SDS011;14732;51.074;3.788;2023-05-02T00:05:00;36.80;;;16.52;;
27225;SDS011;14732;51.074;3.788;2023-05-02T00:07:26;39.92;;;16.25;;
27225;SDS011;14732;51.074;3.788;2023-05-02T00:09:52;34.92;;;16.42;;
27225;SDS011;14732;51.074;3.788;2023-05-02T00:12:17;41.60;;;17.15;;
27225;SDS011;14732;51.074;3.788;2023-05-02T00:14:43;34.83;;;17.08;;
27225;SDS011;14732;51.074;3.788;2023-05-02T00:17:15;37.65;;;16.10;;
27225;SDS011;14732;51.074;3.788;2023-05-02T00:19:42;35.60;;;16.70;;
27225;SDS011;14732;51.074;3.788;2023-05-02T00:22:08;35.33;;;16.27;;
27225;SDS011;14732;51.074;3.788;2023-05-02T00:24:33;32.90;;;16.60;;
27225;SDS011;14732;51.074;3.788;2023-05-02T00:26:59;39.72;;;17.13;;
27225;SDS011;14732;51.074;3.788;2023-05-02T00:29:25;33.72;;;17.00;;
27225;SDS011;14732;51.074;3.788;2023-05-02T00:31:50;38.50;;;16.88;;
27225;SDS011;14732;51.074;3.788;2023-05-02T00:34:16;36.47;;;18.00;;
27225;SDS011;14732;51.074;3.788;2023-05-02T00:36:42;34.45;;;17.40;;
27225;SDS011;14732;51.074;3.788;2023-05-02T00:39:07;35.03;;;17.65;;
27225;SDS011;14732;51.074;3.788;2023-05-02T00:41:33;34.65;;;17.58;;
27225;SDS011;14732;51.074;3.788;2023-05-02T00:43:59;37.70;;;17.73;;
27225;SDS011;14732;51.074;3.788;2023-05-02T00:46:25;43.20;;;19.38;;
27225;SDS011;14732;51.074;3.788;2023-05-02T00:48:51;41.55;;;18.63;;
27225;SDS011;14732;51.074;3.788;2023-05-02T00:51:17;40.05;;;19.58;;
27225;SDS011;14732;51.074;3.788;2023-05-02T00:53:43;43.05;;;20.33;;
27225;SDS011;14732;51.074;3.788;2023-05-02T00:56:09;42.20;;;20.52;;
27225;SDS011;14732;51.074;3.788;2023-05-02T00:58:35;39.70;;;19.65;;
27225;SDS011;14732;51.074;3.788;2023-05-02T01:01:28;42.92;;;19.45;;
27225;SDS011;14732;51.074;3.788;2023-05-02T01:04:10;41.40;;;20.75;;
27225;SDS011;14732;51.074;3.788;2023-05-02T01:09:47;49.88;;;21.38;;
27225;SDS011;14732;51.074;3.788;2023-05-02T01:12:37;45.15;;;20.60;;
27225;SDS011;14732;51.074;3.788;2023-05-02T01:15:19;41.72;;;21.33;;
27225;SDS011;14732;51.074;3.788;2023-05-02T01:17:46;47.85;;;22.02;;
27225;SDS011;14732;51.074;3.788;2023-05-02T01:20:15;53.17;;;22.67;;
27225;SDS011;14732;51.074;3.788;2023-05-02T01:22:44;44.70;;;21.92;;
27225;SDS011;14732;51.074;3.788;2023-05-02T01:31:12;44.70;;;22.08;;
27225;SDS011;14732;51.074;3.788;2023-05-02T01:33:40;51.35;;;21.15;;
27225;SDS011;14732;51.074;3.788;2023-05-02T01:36:07;46.63;;;22.52;;
27225;SDS011;14732;51.074;3.788;2023-05-02T01:38:33;48.55;;;22.17;;
27225;SDS011;14732;51.074;3.788;2023-05-02T01:41:00;47.67;;;22.17;;
27225;SDS011;14732;51.074;3.788;2023-05-02T01:43:31;45.75;;;21.95;;
27225;SDS011;14732;51.074;3.788;2023-05-02T01:45:58;44.85;;;21.23;;
27225;SDS011;14732;51.074;3.788;2023-05-02T01:48:26;45.45;;;21.20;;
27225;SDS011;14732;51.074;3.788;2023-05-02T01:50:53;41.92;;;20.40;;
27225;SDS011;14732;51.074;3.788;2023-05-02T01:53:21;45.80;;;20.23;;
27225;SDS011;14732;51.074;3.788;2023-05-02T01:55:49;48.05;;;20.40;;
27225;SDS011;14732;51.074;3.788;2023-05-02T01:58:16;45.72;;;20.65;;
27225;SDS011;14732;51.074;3.788;2023-05-02T02:00:45;45.65;;;20.15;;
27225;SDS011;14732;51.074;3.788;2023-05-02T02:03:11;45.90;;;19.85;;
27225;SDS011;14732;51.074;3.788;2023-05-02T02:05:39;47.55;;;21.33;;
27225;SDS011;14732;51.074;3.788;2023-05-02T02:08:06;43.53;;;20.13;;
27225;SDS011;14732;51.074;3.788;2023-05-02T02:10:34;44.55;;;20.05;;
27225;SDS011;14732;51.074;3.788;2023-05-02T02:13:05;48.08;;;20.45;;
27225;SDS011;14732;51.074;3.788;2023-05-02T02:15:40;44.08;;;19.77;;
27225;SDS011;14732;51.074;3.788;2023-05-02T02:18:09;40.88;;;19.55;;
27225;SDS011;14732;51.074;3.788;2023-05-02T02:20:41;41.55;;;18.92;;
27225;SDS011;14732;51.074;3.788;2023-05-02T02:23:09;42.58;;;19.52;;
27225;SDS011;14732;51.074;3.788;2023-05-02T02:25:36;44.80;;;20.85;;
27225;SDS011;14732;51.074;3.788;2023-05-02T02:28:02;42.78;;;20.25;;
27225;SDS011;14732;51.074;3.788;2023-05-02T02:30:28;46.72;;;20.77;;
27225;SDS011;14732;51.074;3.788;2023-05-02T02:32:53;47.25;;;20.50;;
27225;SDS011;14732;51.074;3.788;2023-05-02T02:35:19;45.78;;;19.98;;
27225;SDS011;14732;51.074;3.788;2023-05-02T02:41:05;48.35;;;21.30;;
27225;SDS011;14732;51.074;3.788;2023-05-02T02:43:41;53.03;;;21.33;;
27225;SDS011;14732;51.074;3.788;2023-05-02T02:51:34;49.97;;;19.63;;
27225;SDS011;14732;51.074;3.788;2023-05-02T02:54:12;47.47;;;20.10;;
27225;SDS011;14732;51.074;3.788;2023-05-02T02:56:39;47.28;;;20.98;;
27225;SDS011;14732;51.074;3.788;2023-05-02T03:01:35;41.85;;;19.00;;
27225;SDS011;14732;51.074;3.788;2023-05-02T03:04:06;48.53;;;20.48;;
27225;SDS011;14732;51.074;3.788;2023-05-02T03:06:33;46.35;;;20.13;;
27225;SDS011;14732;51.074;3.788;2023-05-02T03:09:00;45.30;;;20.02;;
27225;SDS011;14732;51.074;3.788;2023-05-02T03:11:26;42.70;;;19.17;;
27225;SDS011;14732;51.074;3.788;2023-05-02T03:13:52;44.53;;;19.15;;
27225;SDS011;14732;51.074;3.788;2023-05-02T03:16:31;44.22;;;18.67;;
27225;SDS011;14732;51.074;3.788;2023-05-02T03:19:02;38.90;;;17.40;;
27225;SDS011;14732;51.074;3.788;2023-05-02T03:21:29;43.25;;;19.55;;
27225;SDS011;14732;51.074;3.788;2023-05-02T03:24:01;43.08;;;18.60;;
27225;SDS011;14732;51.074;3.788;2023-05-02T03:26:28;43.80;;;18.73;;
27225;SDS011;14732;51.074;3.788;2023-05-02T03:28:54;39.10;;;17.65;;
27225;SDS011;14732;51.074;3.788;2023-05-02T03:31:21;42.45;;;17.67;;
27225;SDS011;14732;51.074;3.788;2023-05-02T03:33:47;40.92;;;17.90;;
27225;SDS011;14732;51.074;3.788;2023-05-02T03:36:13;44.50;;;19.08;;
27225;SDS011;14732;51.074;3.788;2023-05-02T03:38:40;40.67;;;18.30;;
27225;SDS011;14732;51.074;3.788;2023-05-02T03:41:06;37.72;;;17.58;;
27225;SDS011;14732;51.074;3.788;2023-05-02T03:43:32;41.28;;;17.75;;
27225;SDS011;14732;51.074;3.788;2023-05-02T03:46:02;37.85;;;17.65;;
27225;SDS011;14732;51.074;3.788;2023-05-02T03:48:31;39.35;;;18.33;;
27225;SDS011;14732;51.074;3.788;2023-05-02T03:50:57;40.60;;;17.92;;
27225;SDS011;14732;51.074;3.788;2023-05-02T03:53:23;38.63;;;18.77;;
27225;SDS011;14732;51.074;3.788;2023-05-02T03:55:49;43.92;;;18.13;;
27225;SDS011;14732;51.074;3.788;2023-05-02T03:58:15;42.40;;;17.15;;
27225;SDS011;14732;51.074;3.788;2023-05-02T04:00:41;37.60;;;17.38;;
27225;SDS011;14732;51.074;3.788;2023-05-02T04:03:07;40.47;;;18.48;;
27225;SDS011;14732;51.074;3.788;2023-05-02T04:05:32;33.28;;;15.52;;
27225;SDS011;14732;51.074;3.788;2023-05-02T04:07:58;36.20;;;16.27;;
27225;SDS011;14732;51.074;3.788;2023-05-02T04:10:25;32.47;;;15.73;;
27225;SDS011;14732;51.074;3.788;2023-05-02T04:12:50;29.38;;;15.38;;
27225;SDS011;14732;51.074;3.788;2023-05-02T04:15:16;32.25;;;15.10;;
27225;SDS011;14732;51.074;3.788;2023-05-02T04:17:42;31.30;;;15.20;;
27225;SDS011;14732;51.074;3.788;2023-05-02T04:20:07;29.40;;;14.93;;
27225;SDS011;14732;51.074;3.788;2023-05-02T04:22:33;34.40;;;15.27;;
27225;SDS011;14732;51.074;3.788;2023-05-02T04:24:59;29.75;;;15.43;;
27225;SDS011;14732;51.074;3.788;2023-05-02T04:27:25;33.22;;;15.05;;
27225;SDS011;14732;51.074;3.788;2023-05-02T04:29:51;26.50;;;13.18;;
27225;SDS011;14732;51.074;3.788;2023-05-02T04:32:17;29.52;;;15.43;;
27225;SDS011;14732;51.074;3.788;2023-05-02T04:34:43;27.92;;;15.10;;
27225;SDS011;14732;51.074;3.788;2023-05-02T04:37:09;28.17;;;14.82;;
27225;SDS011;14732;51.074;3.788;2023-05-02T04:39:34;36.55;;;15.35;;
27225;SDS011;14732;51.074;3.788;2023-05-02T04:42:00;27.85;;;14.88;;
27225;SDS011;14732;51.074;3.788;2023-05-02T04:44:26;30.38;;;15.77;;
27225;SDS011;14732;51.074;3.788;2023-05-02T04:46:52;25.45;;;15.25;;
27225;SDS011;14732;51.074;3.788;2023-05-02T04:49:17;23.33;;;13.63;;
27225;SDS011;14732;51.074;3.788;2023-05-02T04:51:43;21.50;;;12.52;;
27225;SDS011;14732;51.074;3.788;2023-05-02T04:54:09;19.13;;;10.93;;
27225;SDS011;14732;51.074;3.788;2023-05-02T04:56:35;15.68;;;10.38;;
27225;SDS011;14732;51.074;3.788;2023-05-02T04:59:01;17.20;;;8.93;;
27225;SDS011;14732;51.074;3.788;2023-05-02T05:01:26;15.20;;;8.18;;
27225;SDS011;14732;51.074;3.788;2023-05-02T05:03:55;12.38;;;8.15;;
27225;SDS011;14732;51.074;3.788;2023-05-02T05:06:21;14.00;;;7.22;;
27225;SDS011;14732;51.074;3.788;2023-05-02T05:08:47;10.20;;;6.13;;
27225;SDS011;14732;51.074;3.788;2023-05-02T05:11:13;18.42;;;9.23;;
27225;SDS011;14732;51.074;3.788;2023-05-02T05:13:40;23.60;;;10.77;;
27225;SDS011;14732;51.074;3.788;2023-05-02T05:16:06;18.27;;;9.35;;
27225;SDS011;14732;51.074;3.788;2023-05-02T05:18:32;12.23;;;6.10;;
27225;SDS011;14732;51.074;3.788;2023-05-02T05:21:10;15.02;;;5.20;;
27225;SDS011;14732;51.074;3.788;2023-05-02T05:23:36;11.48;;;5.47;;
27225;SDS011;14732;51.074;3.788;2023-05-02T05:26:12;14.18;;;7.45;;
27225;SDS011;14732;51.074;3.788;2023-05-02T05:28:42;22.35;;;10.38;;
27225;SDS011;14732;51.074;3.788;2023-05-02T05:31:09;18.67;;;7.90;;
27225;SDS011;14732;51.074;3.788;2023-05-02T05:33:36;19.80;;;7.90;;
27225;SDS011;14732;51.074;3.788;2023-05-02T05:36:03;23.25;;;9.38;;
27225;SDS011;14732;51.074;3.788;2023-05-02T05:38:29;27.08;;;10.77;;
27225;SDS011;14732;51.074;3.788;2023-05-02T05:40:55;34.42;;;15.00;;
27225;SDS011;14732;51.074;3.788;2023-05-02T05:43:21;31.65;;;13.57;;
27225;SDS011;14732;51.074;3.788;2023-05-02T05:45:46;51.13;;;18.08;;
27225;SDS011;14732;51.074;3.788;2023-05-02T05:48:12;56.88;;;23.67;;
27225;SDS011;14732;51.074;3.788;2023-05-02T05:50:38;58.55;;;23.95;;
27225;SDS011;14732;51.074;3.788;2023-05-02T05:53:03;53.05;;;23.08;;
27225;SDS011;14732;51.074;3.788;2023-05-02T05:55:29;45.63;;;17.42;;
27225;SDS011;14732;51.074;3.788;2023-05-02T05:57:55;49.08;;;21.17;;
27225;SDS011;14732;51.074;3.788;2023-05-02T06:00:20;53.35;;;22.92;;
27225;SDS011;14732;51.074;3.788;2023-05-02T06:02:46;55.83;;;22.65;;
27225;SDS011;14732;51.074;3.788;2023-05-02T06:05:12;31.58;;;13.88;;
27225;SDS011;14732;51.074;3.788;2023-05-02T06:07:37;25.52;;;10.38;;
27225;SDS011;14732;51.074;3.788;2023-05-02T06:10:03;29.40;;;11.68;;
27225;SDS011;14732;51.074;3.788;2023-05-02T06:12:29;28.70;;;12.13;;
27225;SDS011;14732;51.074;3.788;2023-05-02T06:14:55;29.33;;;10.85;;
27225;SDS011;14732;51.074;3.788;2023-05-02T06:17:20;21.90;;;8.88;;
27225;SDS011;14732;51.074;3.788;2023-05-02T06:19:46;19.63;;;8.70;;
27225;SDS011;14732;51.074;3.788;2023-05-02T06:22:12;21.42;;;8.30;;
27225;SDS011;14732;51.074;3.788;2023-05-02T06:24:38;12.02;;;5.28;;
27225;SDS011;14732;51.074;3.788;2023-05-02T06:27:03;10.38;;;4.32;;
27225;SDS011;14732;51.074;3.788;2023-05-02T06:29:29;7.57;;;3.20;;
27225;SDS011;14732;51.074;3.788;2023-05-02T06:31:55;10.43;;;3.00;;
27225;SDS011;14732;51.074;3.788;2023-05-02T06:34:21;7.07;;;3.00;;
27225;SDS011;14732;51.074;3.788;2023-05-02T06:36:46;11.18;;;2.88;;
27225;SDS011;14732;51.074;3.788;2023-05-02T06:39:12;11.52;;;2.85;;
27225;SDS011;14732;51.074;3.788;2023-05-02T06:41:38;10.60;;;2.53;;
27225;SDS011;14732;51.074;3.788;2023-05-02T06:44:03;6.95;;;2.70;;
27225;SDS011;14732;51.074;3.788;2023-05-02T06:46:30;10.98;;;2.97;;
27225;SDS011;14732;51.074;3.788;2023-05-02T06:48:55;8.63;;;2.67;;
27225;SDS011;14732;51.074;3.788;2023-05-02T06:51:21;7.82;;;2.92;;
27225;SDS011;14732;51.074;3.788;2023-05-02T06:53:47;9.35;;;2.97;;
27225;SDS011;14732;51.074;3.788;2023-05-02T06:56:12;8.20;;;2.63;;
27225;SDS011;14732;51.074;3.788;2023-05-02T06:58:38;5.13;;;2.10;;
27225;SDS011;14732;51.074;3.788;2023-05-02T07:01:04;12.80;;;2.00;;
27225;SDS011;14732;51.074;3.788;2023-05-02T07:03:30;7.28;;;2.20;;
27225;SDS011;14732;51.074;3.788;2023-05-02T07:05:55;7.47;;;1.98;;
27225;SDS011;14732;51.074;3.788;2023-05-02T07:08:22;9.30;;;2.00;;
27225;SDS011;14732;51.074;3.788;2023-05-02T07:10:47;7.07;;;2.33;;
27225;SDS011;14732;51.074;3.788;2023-05-02T07:13:14;6.80;;;2.28;;
27225;SDS011;14732;51.074;3.788;2023-05-02T07:15:39;8.32;;;2.15;;
27225;SDS011;14732;51.074;3.788;2023-05-02T07:18:05;7.88;;;1.77;;
27225;SDS011;14732;51.074;3.788;2023-05-02T07:20:31;3.28;;;1.38;;
27225;SDS011;14732;51.074;3.788;2023-05-02T07:22:56;4.43;;;1.50;;
27225;SDS011;14732;51.074;3.788;2023-05-02T07:25:22;6.25;;;1.95;;
27225;SDS011;14732;51.074;3.788;2023-05-02T07:27:48;6.57;;;1.80;;
27225;SDS011;14732;51.074;3.788;2023-05-02T07:30:13;5.50;;;1.33;;
27225;SDS011;14732;51.074;3.788;2023-05-02T07:32:39;4.43;;;1.38;;
27225;SDS011;14732;51.074;3.788;2023-05-02T07:35:05;11.40;;;2.03;;
27225;SDS011;14732;51.074;3.788;2023-05-02T07:37:32;8.13;;;1.90;;
27225;SDS011;14732;51.074;3.788;2023-05-02T07:39:58;6.72;;;1.48;;
27225;SDS011;14732;51.074;3.788;2023-05-02T07:42:30;3.30;;;1.30;;
27225;SDS011;14732;51.074;3.788;2023-05-02T07:44:57;7.47;;;1.58;;
27225;SDS011;14732;51.074;3.788;2023-05-02T07:47:23;5.53;;;1.80;;
27225;SDS011;14732;51.074;3.788;2023-05-02T07:49:50;8.05;;;1.35;;
27225;SDS011;14732;51.074;3.788;2023-05-02T07:52:17;4.45;;;1.65;;
27225;SDS011;14732;51.074;3.788;2023-05-02T07:54:43;6.75;;;2.28;;
27225;SDS011;14732;51.074;3.788;2023-05-02T07:57:10;7.45;;;2.30;;
27225;SDS011;14732;51.074;3.788;2023-05-02T07:59:37;5.95;;;2.53;;
27225;SDS011;14732;51.074;3.788;2023-05-02T08:02:03;7.50;;;1.95;;
27225;SDS011;14732;51.074;3.788;2023-05-02T08:04:29;6.20;;;1.60;;
27225;SDS011;14732;51.074;3.788;2023-05-02T08:06:54;8.10;;;2.13;;
27225;SDS011;14732;51.074;3.788;2023-05-02T08:09:20;6.47;;;1.95;;
27225;SDS011;14732;51.074;3.788;2023-05-02T08:11:46;6.65;;;1.75;;
27225;SDS011;14732;51.074;3.788;2023-05-02T08:14:12;6.20;;;1.70;;
27225;SDS011;14732;51.074;3.788;2023-05-02T08:16:39;3.50;;;1.60;;
27225;SDS011;14732;51.074;3.788;2023-05-02T08:19:05;9.23;;;2.05;;
27225;SDS011;14732;51.074;3.788;2023-05-02T08:21:31;5.85;;;2.10;;
27225;SDS011;14732;51.074;3.788;2023-05-02T08:23:57;8.77;;;2.53;;
27225;SDS011;14732;51.074;3.788;2023-05-02T08:26:23;5.82;;;2.50;;
27225;SDS011;14732;51.074;3.788;2023-05-02T08:28:53;6.05;;;2.10;;
27225;SDS011;14732;51.074;3.788;2023-05-02T08:31:19;7.65;;;2.08;;
27225;SDS011;14732;51.074;3.788;2023-05-02T08:33:45;7.97;;;2.45;;
27225;SDS011;14732;51.074;3.788;2023-05-02T08:36:15;4.00;;;2.33;;
27225;SDS011;14732;51.074;3.788;2023-05-02T08:38:42;6.90;;;2.30;;
27225;SDS011;14732;51.074;3.788;2023-05-02T08:41:15;7.32;;;2.20;;
27225;SDS011;14732;51.074;3.788;2023-05-02T08:43:42;9.70;;;2.70;;
27225;SDS011;14732;51.074;3.788;2023-05-02T08:46:10;8.85;;;2.67;;
27225;SDS011;14732;51.074;3.788;2023-05-02T08:48:37;5.63;;;2.10;;
27225;SDS011;14732;51.074;3.788;2023-05-02T08:51:09;6.93;;;2.55;;
27225;SDS011;14732;51.074;3.788;2023-05-02T08:53:36;13.00;;;2.17;;
27225;SDS011;14732;51.074;3.788;2023-05-02T08:56:03;7.07;;;2.03;;
27225;SDS011;14732;51.074;3.788;2023-05-02T08:58:30;6.55;;;2.05;;
27225;SDS011;14732;51.074;3.788;2023-05-02T09:00:56;6.38;;;1.98;;
27225;SDS011;14732;51.074;3.788;2023-05-02T09:06:08;8.18;;;2.47;;
27225;SDS011;14732;51.074;3.788;2023-05-02T09:08:43;6.57;;;2.35;;
27225;SDS011;14732;51.074;3.788;2023-05-02T09:11:10;5.45;;;2.30;;
27225;SDS011;14732;51.074;3.788;2023-05-02T09:13:37;7.78;;;2.35;;
27225;SDS011;14732;51.074;3.788;2023-05-02T09:16:05;6.78;;;2.42;;
27225;SDS011;14732;51.074;3.788;2023-05-02T09:18:33;11.73;;;2.80;;
27225;SDS011;14732;51.074;3.788;2023-05-02T09:21:02;7.18;;;2.78;;
27225;SDS011;14732;51.074;3.788;2023-05-02T09:23:31;8.60;;;2.30;;
27225;SDS011;14732;51.074;3.788;2023-05-02T09:26:00;9.02;;;2.40;;
27225;SDS011;14732;51.074;3.788;2023-05-02T09:28:39;7.68;;;2.35;;
27225;SDS011;14732;51.074;3.788;2023-05-02T09:31:07;7.22;;;3.10;;
27225;SDS011;14732;51.074;3.788;2023-05-02T09:33:34;8.10;;;3.28;;
27225;SDS011;14732;51.074;3.788;2023-05-02T09:36:00;11.98;;;3.70;;
27225;SDS011;14732;51.074;3.788;2023-05-02T09:38:26;7.63;;;3.00;;
27225;SDS011;14732;51.074;3.788;2023-05-02T09:40:54;9.75;;;3.40;;
27225;SDS011;14732;51.074;3.788;2023-05-02T09:43:20;6.10;;;3.13;;
27225;SDS011;14732;51.074;3.788;2023-05-02T09:46:00;9.48;;;3.42;;
27225;SDS011;14732;51.074;3.788;2023-05-02T09:50:52;7.82;;;3.30;;
27225;SDS011;14732;51.074;3.788;2023-05-02T09:53:18;5.43;;;2.42;;
27225;SDS011;14732;51.074;3.788;2023-05-02T09:55:44;9.35;;;3.22;;
27225;SDS011;14732;51.074;3.788;2023-05-02T09:58:20;14.68;;;5.65;;
27225;SDS011;14732;51.074;3.788;2023-05-02T10:00:49;12.57;;;5.28;;
27225;SDS011;14732;51.074;3.788;2023-05-02T10:03:18;6.63;;;3.03;;
27225;SDS011;14732;51.074;3.788;2023-05-02T10:05:45;9.88;;;4.05;;
27225;SDS011;14732;51.074;3.788;2023-05-02T10:08:11;9.55;;;3.88;;
27225;SDS011;14732;51.074;3.788;2023-05-02T10:10:38;8.85;;;3.28;;
27225;SDS011;14732;51.074;3.788;2023-05-02T10:13:07;8.73;;;4.10;;
27225;SDS011;14732;51.074;3.788;2023-05-02T10:15:33;10.85;;;3.83;;
27225;SDS011;14732;51.074;3.788;2023-05-02T10:18:06;10.73;;;3.88;;
27225;SDS011;14732;51.074;3.788;2023-05-02T10:20:39;8.48;;;2.95;;
27225;SDS011;14732;51.074;3.788;2023-05-02T10:23:08;11.57;;;4.03;;
27225;SDS011;14732;51.074;3.788;2023-05-02T10:25:35;10.30;;;4.65;;
27225;SDS011;14732;51.074;3.788;2023-05-02T10:28:01;7.65;;;3.20;;
27225;SDS011;14732;51.074;3.788;2023-05-02T10:30:28;10.55;;;3.40;;
27225;SDS011;14732;51.074;3.788;2023-05-02T10:32:55;6.90;;;2.80;;
27225;SDS011;14732;51.074;3.788;2023-05-02T10:35:24;7.88;;;3.85;;
27225;SDS011;14732;51.074;3.788;2023-05-02T10:37:51;9.32;;;3.97;;
27225;SDS011;14732;51.074;3.788;2023-05-02T10:40:17;12.27;;;4.35;;
27225;SDS011;14732;51.074;3.788;2023-05-02T10:42:43;16.33;;;4.53;;
27225;SDS011;14732;51.074;3.788;2023-05-02T10:45:12;9.43;;;3.70;;
27225;SDS011;14732;51.074;3.788;2023-05-02T10:50:51;6.20;;;3.05;;
27225;SDS011;14732;51.074;3.788;2023-05-02T10:58:38;11.48;;;3.95;;
27225;SDS011;14732;51.074;3.788;2023-05-02T11:07:15;7.88;;;3.25;;
27225;SDS011;14732;51.074;3.788;2023-05-02T11:11:48;9.40;;;3.95;;
27225;SDS011;14732;51.074;3.788;2023-05-02T11:19:28;18.23;;;4.63;;
27225;SDS011;14732;51.074;3.788;2023-05-02T11:24:48;9.82;;;4.18;;
27225;SDS011;14732;51.074;3.788;2023-05-02T11:30:02;16.20;;;5.70;;
27225;SDS011;14732;51.074;3.788;2023-05-02T11:35:19;14.13;;;4.60;;
27225;SDS011;14732;51.074;3.788;2023-05-02T11:38:34;12.77;;;4.97;;
27225;SDS011;14732;51.074;3.788;2023-05-02T11:40:39;14.23;;;5.00;;
27225;SDS011;14732;51.074;3.788;2023-05-02T11:43:15;13.75;;;4.85;;
27225;SDS011;14732;51.074;3.788;2023-05-02T11:45:42;10.40;;;4.05;;
27225;SDS011;14732;51.074;3.788;2023-05-02T11:48:08;12.85;;;4.38;;
27225;SDS011;14732;51.074;3.788;2023-05-02T11:50:52;10.88;;;4.38;;
27225;SDS011;14732;51.074;3.788;2023-05-02T11:53:23;9.88;;;3.97;;
27225;SDS011;14732;51.074;3.788;2023-05-02T11:55:54;9.43;;;5.38;;
27225;SDS011;14732;51.074;3.788;2023-05-02T11:58:22;9.18;;;4.93;;
27225;SDS011;14732;51.074;3.788;2023-05-02T12:00:49;11.38;;;4.40;;
27225;SDS011;14732;51.074;3.788;2023-05-02T12:05:52;13.93;;;5.10;;
27225;SDS011;14732;51.074;3.788;2023-05-02T12:08:19;11.77;;;4.10;;
27225;SDS011;14732;51.074;3.788;2023-05-02T12:10:50;10.75;;;3.50;;
27225;SDS011;14732;51.074;3.788;2023-05-02T12:13:17;15.55;;;6.13;;
27225;SDS011;14732;51.074;3.788;2023-05-02T12:15:42;8.35;;;4.50;;
27225;SDS011;14732;51.074;3.788;2023-05-02T12:18:09;7.30;;;3.45;;
27225;SDS011;14732;51.074;3.788;2023-05-02T12:20:35;9.48;;;3.67;;
27225;SDS011;14732;51.074;3.788;2023-05-02T12:23:03;8.02;;;3.97;;
27225;SDS011;14732;51.074;3.788;2023-05-02T12:25:31;7.13;;;4.20;;
27225;SDS011;14732;51.074;3.788;2023-05-02T12:28:01;11.60;;;4.70;;
27225;SDS011;14732;51.074;3.788;2023-05-02T12:30:28;9.00;;;4.20;;
27225;SDS011;14732;51.074;3.788;2023-05-02T12:32:55;9.30;;;3.30;;
27225;SDS011;14732;51.074;3.788;2023-05-02T12:35:22;8.23;;;3.00;;
27225;SDS011;14732;51.074;3.788;2023-05-02T12:37:48;7.32;;;3.53;;
27225;SDS011;14732;51.074;3.788;2023-05-02T12:40:14;16.98;;;4.15;;
27225;SDS011;14732;51.074;3.788;2023-05-02T12:42:56;10.18;;;3.88;;
27225;SDS011;14732;51.074;3.788;2023-05-02T12:45:28;12.13;;;4.07;;
27225;SDS011;14732;51.074;3.788;2023-05-02T12:50:36;10.38;;;3.33;;
27225;SDS011;14732;51.074;3.788;2023-05-02T12:53:03;8.38;;;3.22;;
27225;SDS011;14732;51.074;3.788;2023-05-02T12:55:28;6.13;;;2.85;;
27225;SDS011;14732;51.074;3.788;2023-05-02T12:58:29;9.32;;;2.72;;
27225;SDS011;14732;51.074;3.788;2023-05-02T13:00:50;11.48;;;4.05;;
27225;SDS011;14732;51.074;3.788;2023-05-02T13:03:16;9.27;;;4.25;;
27225;SDS011;14732;51.074;3.788;2023-05-02T13:05:42;10.55;;;3.63;;
27225;SDS011;14732;51.074;3.788;2023-05-02T13:08:07;10.25;;;3.50;;
27225;SDS011;14732;51.074;3.788;2023-05-02T13:10:33;8.77;;;3.00;;
27225;SDS011;14732;51.074;3.788;2023-05-02T13:12:59;7.85;;;3.33;;
27225;SDS011;14732;51.074;3.788;2023-05-02T13:15:25;12.02;;;4.47;;
27225;SDS011;14732;51.074;3.788;2023-05-02T13:17:51;12.10;;;4.47;;
27225;SDS011;14732;51.074;3.788;2023-05-02T13:20:16;10.23;;;3.88;;
27225;SDS011;14732;51.074;3.788;2023-05-02T13:22:43;6.30;;;3.05;;
27225;SDS011;14732;51.074;3.788;2023-05-02T13:25:08;7.07;;;3.13;;
27225;SDS011;14732;51.074;3.788;2023-05-02T13:27:34;5.00;;;3.03;;
27225;SDS011;14732;51.074;3.788;2023-05-02T13:30:00;11.95;;;3.72;;
27225;SDS011;14732;51.074;3.788;2023-05-02T13:32:26;9.57;;;3.40;;
27225;SDS011;14732;51.074;3.788;2023-05-02T13:34:52;15.90;;;3.42;;
27225;SDS011;14732;51.074;3.788;2023-05-02T13:37:18;16.65;;;3.38;;
27225;SDS011;14732;51.074;3.788;2023-05-02T13:39:44;9.57;;;3.47;;
27225;SDS011;14732;51.074;3.788;2023-05-02T13:42:10;10.02;;;3.67;;
27225;SDS011;14732;51.074;3.788;2023-05-02T13:44:35;11.68;;;4.38;;
27225;SDS011;14732;51.074;3.788;2023-05-02T13:47:01;11.05;;;5.22;;
27225;SDS011;14732;51.074;3.788;2023-05-02T13:49:27;11.38;;;5.38;;
27225;SDS011;14732;51.074;3.788;2023-05-02T13:51:54;11.57;;;4.95;;
27225;SDS011;14732;51.074;3.788;2023-05-02T13:54:20;12.38;;;5.40;;
27225;SDS011;14732;51.074;3.788;2023-05-02T13:56:45;14.38;;;4.38;;
27225;SDS011;14732;51.074;3.788;2023-05-02T13:59:11;9.25;;;3.28;;
27225;SDS011;14732;51.074;3.788;2023-05-02T14:01:36;9.18;;;4.00;;
27225;SDS011;14732;51.074;3.788;2023-05-02T14:04:04;9.57;;;3.15;;
27225;SDS011;14732;51.074;3.788;2023-05-02T14:06:32;7.72;;;2.88;;
27225;SDS011;14732;51.074;3.788;2023-05-02T14:08:58;8.85;;;4.28;;
27225;SDS011;14732;51.074;3.788;2023-05-02T14:11:24;8.15;;;3.58;;
27225;SDS011;14732;51.074;3.788;2023-05-02T14:13:51;5.78;;;2.78;;
27225;SDS011;14732;51.074;3.788;2023-05-02T14:16:16;5.60;;;2.58;;
27225;SDS011;14732;51.074;3.788;2023-05-02T14:18:42;6.75;;;2.45;;
27225;SDS011;14732;51.074;3.788;2023-05-02T14:21:09;5.20;;;2.92;;
27225;SDS011;14732;51.074;3.788;2023-05-02T14:23:35;7.57;;;2.30;;
27225;SDS011;14732;51.074;3.788;2023-05-02T14:26:01;5.50;;;2.72;;
27225;SDS011;14732;51.074;3.788;2023-05-02T14:28:27;5.75;;;2.60;;
27225;SDS011;14732;51.074;3.788;2023-05-02T14:30:53;9.75;;;3.20;;
27225;SDS011;14732;51.074;3.788;2023-05-02T14:33:19;9.63;;;3.67;;
27225;SDS011;14732;51.074;3.788;2023-05-02T14:35:45;10.75;;;3.60;;
27225;SDS011;14732;51.074;3.788;2023-05-02T14:38:10;7.28;;;2.60;;
27225;SDS011;14732;51.074;3.788;2023-05-02T14:40:36;9.05;;;2.80;;
27225;SDS011;14732;51.074;3.788;2023-05-02T14:43:02;7.45;;;3.03;;
27225;SDS011;14732;51.074;3.788;2023-05-02T14:45:28;10.23;;;2.88;;
27225;SDS011;14732;51.074;3.788;2023-05-02T14:47:54;5.75;;;2.58;;
27225;SDS011;14732;51.074;3.788;2023-05-02T14:50:21;7.00;;;3.05;;
27225;SDS011;14732;51.074;3.788;2023-05-02T14:52:47;6.35;;;3.00;;
27225;SDS011;14732;51.074;3.788;2023-05-02T14:55:13;6.32;;;2.58;;
27225;SDS011;14732;51.074;3.788;2023-05-02T14:57:38;7.72;;;2.63;;
27225;SDS011;14732;51.074;3.788;2023-05-02T15:00:04;8.13;;;2.92;;
27225;SDS011;14732;51.074;3.788;2023-05-02T15:02:36;8.25;;;2.90;;
27225;SDS011;14732;51.074;3.788;2023-05-02T15:05:02;8.70;;;3.10;;
27225;SDS011;14732;51.074;3.788;2023-05-02T15:07:29;9.73;;;3.08;;
27225;SDS011;14732;51.074;3.788;2023-05-02T15:09:55;8.23;;;3.10;;
27225;SDS011;14732;51.074;3.788;2023-05-02T15:12:21;7.63;;;3.10;;
27225;SDS011;14732;51.074;3.788;2023-05-02T15:14:46;12.23;;;2.72;;
27225;SDS011;14732;51.074;3.788;2023-05-02T15:17:12;9.52;;;4.05;;
27225;SDS011;14732;51.074;3.788;2023-05-02T15:19:38;17.95;;;3.80;;
27225;SDS011;14732;51.074;3.788;2023-05-02T15:22:03;8.10;;;4.15;;
27225;SDS011;14732;51.074;3.788;2023-05-02T15:24:29;9.35;;;4.25;;
27225;SDS011;14732;51.074;3.788;2023-05-02T15:26:55;9.48;;;4.10;;
27225;SDS011;14732;51.074;3.788;2023-05-02T15:29:20;9.60;;;3.55;;
27225;SDS011;14732;51.074;3.788;2023-05-02T15:31:46;7.35;;;3.00;;
27225;SDS011;14732;51.074;3.788;2023-05-02T15:34:12;9.75;;;3.30;;
27225;SDS011;14732;51.074;3.788;2023-05-02T15:36:37;7.65;;;3.55;;